Time;durP1;ratioP1;P1;durP2;ratioP2;P2;SDS_P1;SDS_P2;PMS_P1;PMS_P2;Temp;Humidity;BMP_temperature;BMP_pressure;BME280_temperature;BME280_humidity;BME280_pressure;Samples;Min_cycle;Max_cycle;Signal;HPM_P1;HPM_P2
2022/11/20 06:28:12;;;;;;;26.03;19.73;;;0.40;1.00;;;;;;6200147;27;20590;-53
2022/11/20 06:31:17;;;;;;;21.60;18.33;;;0.60;1.00;;;;;;6134067;28;20859;-53
2022/11/20 06:34:20;;;;;;;21.83;18.20;;;0.50;1.00;;;;;;6185293;28;20237;-57
2022/11/20 06:37:23;;;;;;;20.63;18.23;;;0.50;1.00;;;;;;6248825;28;20783;-52
2022/11/20 06:40:26;;;;;;;21.60;17.47;;;0.50;1.00;;;;;;6254986;28;20237;-52
2022/11/20 06:43:30;;;;;;;21.60;16.60;;;0.60;1.00;;;;;;6246918;28;20236;-52
2022/11/20 06:46:33;;;;;;;19.87;16.77;;;0.50;1.00;;;;;;6254422;28;20226;-53
2022/11/20 06:49:38;;;;;;;21.83;17.10;;;0.60;1.00;;;;;;6249948;28;20844;-53
2022/11/20 06:52:41;;;;;;;20.47;17.10;;;0.60;1.00;;;;;;6253332;28;20803;-53
2022/11/20 06:55:47;;;;;;;19.53;17.43;;;0.60;1.00;;;;;;6219890;28;20241;-50
2022/11/20 06:58:51;;;;;;;23.80;18.33;;;0.60;1.00;;;;;;6255479;28;20233;-51
2022/11/20 07:01:54;;;;;;;18.73;16.77;;;0.60;1.00;;;;;;6252710;28;20236;-52
2022/11/20 07:04:57;;;;;;;20.93;16.90;;;0.60;1.00;;;;;;6263784;28;20508;-53
2022/11/20 07:08:00;;;;;;;19.53;17.47;;;0.60;1.00;;;;;;6255998;28;20621;-52
2022/11/20 07:11:05;;;;;;;20.20;16.60;;;0.60;1.00;;;;;;6253832;28;20750;-51
2022/11/20 07:14:10;;;;;;;19.17;16.17;;;0.60;1.00;;;;;;6257199;28;20242;-52
2022/11/20 07:17:13;;;;;;;22.73;17.87;;;0.60;1.00;;;;;;6253448;28;20245;-56
2022/11/20 07:20:16;;;;;;;24.17;18.10;;;0.60;1.00;;;;;;6257130;28;20241;-53
2022/11/20 07:23:19;;;;;;;22.87;18.10;;;0.60;1.00;;;;;;6255193;28;20392;-53
2022/11/20 07:26:22;;;;;;;21.93;18.20;;;0.60;1.00;;;;;;6246840;28;20842;-52
2022/11/20 07:29:26;;;;;;;20.90;17.13;;;0.70;1.00;;;;;;6239535;28;20245;-52
2022/11/20 07:32:29;;;;;;;21.23;17.70;;;0.70;1.00;;;;;;6246075;28;20657;-52
2022/11/20 07:35:33;;;;;;;25.57;17.77;;;0.60;1.00;;;;;;6231440;28;20485;-52
2022/11/20 07:38:36;;;;;;;20.87;18.40;;;0.70;1.00;;;;;;6240309;28;20244;-52
2022/11/20 07:41:39;;;;;;;22.53;18.00;;;0.70;1.00;;;;;;6234783;28;20253;-53
2022/11/20 07:44:43;;;;;;;20.10;17.93;;;0.60;1.00;;;;;;6242479;28;20707;-52
2022/11/20 07:47:46;;;;;;;22.33;17.13;;;0.70;1.00;;;;;;6235507;28;20242;-53
2022/11/20 07:50:49;;;;;;;23.27;17.33;;;0.70;1.00;;;;;;6237039;28;20230;-53
2022/11/20 07:53:52;;;;;;;20.47;18.00;;;0.70;1.00;;;;;;6241785;28;20234;-53
2022/11/20 07:56:55;;;;;;;23.30;17.20;;;0.70;1.00;;;;;;6234616;28;20613;-52
2022/11/20 07:59:59;;;;;;;21.93;18.00;;;0.60;1.00;;;;;;6228411;28;20509;-52
2022/11/20 08:03:04;;;;;;;20.07;17.33;;;0.60;1.00;;;;;;6242949;28;20751;-53
2022/11/20 08:06:08;;;;;;;20.90;18.33;;;0.50;1.00;;;;;;6229297;28;20242;-52
2022/11/20 08:09:11;;;;;;;21.27;17.33;;;0.50;1.00;;;;;;6233182;28;20243;-51
2022/11/20 08:15:41;;;;;;;23.37;18.30;;;0.60;1.00;;;;;;6229262;28;20227;-53
2022/11/20 08:18:44;;;;;;;21.87;17.87;;;0.60;1.00;;;;;;6227363;28;20316;-51
2022/11/20 08:21:47;;;;;;;22.10;17.77;;;0.60;1.00;;;;;;6239610;28;20235;-53
2022/11/20 08:24:50;;;;;;;22.43;17.97;;;0.60;1.00;;;;;;6245903;28;20261;-50
2022/11/20 08:27:53;;;;;;;22.40;17.63;;;0.70;1.00;;;;;;6226305;28;20392;-51
2022/11/20 08:31:04;;;;;;;22.83;17.43;;;0.70;1.00;;;;;;6221228;28;20238;-52
2022/11/20 08:34:07;;;;;;;23.60;18.77;;;0.70;1.00;;;;;;6222053;28;20258;-52
2022/11/20 08:37:12;;;;;;;25.23;19.63;;;0.70;1.00;;;;;;6208085;28;20238;-53
2022/11/20 08:40:15;;;;;;;22.23;17.23;;;0.80;1.00;;;;;;6218975;28;20239;-53
2022/11/20 08:43:21;;;;;;;20.70;17.70;;;0.70;1.00;;;;;;6204394;28;20247;-53
2022/11/20 08:46:28;;;;;;;23.80;17.30;;;0.70;1.00;;;;;;6203272;28;20615;-53
2022/11/20 08:49:31;;;;;;;21.10;17.97;;;0.80;1.00;;;;;;6203139;28;20657;-53
2022/11/20 08:52:34;;;;;;;22.43;19.33;;;0.80;1.00;;;;;;6212224;28;20242;-57
2022/11/20 08:55:41;;;;;;;23.67;17.93;;;0.80;1.00;;;;;;6220594;28;20227;-53
2022/11/20 08:58:44;;;;;;;22.63;17.27;;;0.90;1.00;;;;;;6197040;28;20242;-52
2022/11/20 09:02:08;;;;;;;21.87;17.90;;;0.90;1.00;;;;;;6209321;28;21324;-53
2022/11/20 09:05:11;;;;;;;23.90;18.57;;;0.90;1.00;;;;;;6227431;28;20242;-52
2022/11/20 09:08:14;;;;;;;24.97;18.93;;;1.00;1.00;;;;;;6222203;28;20491;-53
2022/11/20 09:11:17;;;;;;;22.77;17.67;;;1.10;1.00;;;;;;6216545;28;20242;-53
2022/11/20 09:14:21;;;;;;;21.83;18.27;;;1.00;1.00;;;;;;6216005;28;20619;-53
2022/11/20 09:17:25;;;;;;;21.40;17.87;;;1.10;1.00;;;;;;6207305;28;20243;-52
2022/11/20 09:20:30;;;;;;;19.63;17.30;;;1.10;1.00;;;;;;6204683;28;20729;-52
2022/11/20 09:23:34;;;;;;;21.40;17.10;;;1.00;1.00;;;;;;6206440;28;20228;-52
2022/11/20 09:26:37;;;;;;;36.90;18.73;;;0.90;1.00;;;;;;6210863;28;20250;-52
2022/11/20 09:29:40;;;;;;;23.03;18.13;;;0.90;1.00;;;;;;6207182;28;20235;-53
2022/11/20 09:32:44;;;;;;;19.70;16.03;;;1.90;1.00;;;;;;6207899;28;20730;-55
2022/11/20 09:35:47;;;;;;;19.87;15.33;;;1.60;1.00;;;;;;6206274;28;20234;-54
2022/11/20 09:38:50;;;;;;;21.23;17.13;;;1.40;1.00;;;;;;6206166;28;20497;-54
2022/11/20 09:42:31;;;;;;;20.33;16.80;;;1.30;1.00;;;;;;6211134;28;20383;-54
2022/11/20 09:45:51;;;;;;;20.83;17.80;;;1.30;1.00;;;;;;6104184;28;20240;-53
2022/11/20 09:49:10;;;;;;;21.10;17.07;;;1.30;1.00;;;;;;6242221;28;20239;-53
2022/11/20 09:52:29;;;;;;;22.63;17.77;;;1.20;1.00;;;;;;6231432;28;20486;-53
2022/11/20 09:55:32;;;;;;;18.80;16.23;;;1.10;1.00;;;;;;6232727;28;20230;-53
2022/11/20 09:58:41;;;;;;;18.67;16.63;;;1.20;1.00;;;;;;6229498;28;20246;-54
2022/11/20 10:01:45;;;;;;;18.37;16.20;;;1.20;1.00;;;;;;6233671;28;20716;-53
2022/11/20 10:04:55;;;;;;;18.47;16.63;;;1.20;1.00;;;;;;6235069;28;20238;-53
2022/11/20 10:08:13;;;;;;;22.07;17.47;;;1.30;1.00;;;;;;6233917;28;20317;-53
2022/11/20 10:11:23;;;;;;;18.47;16.53;;;1.30;1.00;;;;;;6243924;28;20238;-55
2022/11/20 10:14:36;;;;;;;22.13;17.93;;;1.30;1.00;;;;;;6246478;28;20246;-54
2022/11/20 10:18:02;;;;;;;19.23;16.87;;;1.10;1.00;;;;;;6244602;28;20487;-53
2022/11/20 10:21:13;;;;;;;20.53;17.73;;;0.40;1.00;;;;;;6235709;28;20610;-52
2022/11/20 10:24:40;;;;;;;21.03;17.60;;;1.00;1.00;;;;;;6236885;28;20234;-53
2022/11/20 10:28:00;;;;;;;18.00;16.07;;;1.00;1.00;;;;;;6239111;28;20245;-53
2022/11/20 10:31:05;;;;;;;21.63;17.93;;;1.00;1.00;;;;;;6224457;28;20242;-54
2022/11/20 10:34:19;;;;;;;19.17;16.70;;;1.00;1.00;;;;;;6201156;28;20389;-53
2022/11/20 10:37:28;;;;;;;22.20;18.10;;;1.10;1.00;;;;;;6212958;28;20237;-52
2022/11/20 10:40:37;;;;;;;22.13;17.63;;;1.10;1.00;;;;;;6216715;28;20346;-54
2022/11/20 10:43:40;;;;;;;25.57;17.70;;;1.10;1.00;;;;;;6200792;28;20232;-54
2022/11/20 10:46:45;;;;;;;20.67;17.90;;;1.30;1.00;;;;;;6223219;28;20227;-55
2022/11/20 10:49:53;;;;;;;20.87;18.10;;;1.30;1.00;;;;;;6238409;28;20230;-54
2022/11/20 10:53:07;;;;;;;19.43;17.10;;;1.30;1.00;;;;;;6233099;28;20234;-54
2022/11/20 10:56:18;;;;;;;20.60;16.80;;;1.40;1.00;;;;;;6210925;28;20294;-54
2022/11/20 10:59:36;;;;;;;19.77;17.63;;;1.40;1.00;;;;;;6212553;28;20247;-54
2022/11/20 11:02:43;;;;;;;20.37;17.37;;;1.40;1.00;;;;;;6218126;28;20227;-54
2022/11/20 11:05:53;;;;;;;21.37;17.67;;;1.50;1.00;;;;;;6246107;28;20594;-57
2022/11/20 11:09:03;;;;;;;19.47;16.87;;;1.50;1.00;;;;;;6240881;28;20725;-55
2022/11/20 11:12:09;;;;;;;18.97;16.90;;;1.60;1.00;;;;;;6237308;28;20288;-55
2022/11/20 11:15:15;;;;;;;20.07;16.67;;;1.60;1.00;;;;;;6239467;28;20233;-54
2022/11/20 11:18:26;;;;;;;18.70;16.13;;;1.60;1.00;;;;;;6248957;28;20235;-53
2022/11/20 11:21:29;;;;;;;18.83;16.83;;;1.70;1.00;;;;;;6228564;28;20268;-55
2022/11/20 11:24:34;;;;;;;20.33;17.10;;;1.70;1.00;;;;;;6217921;28;20239;-55
2022/11/20 11:27:47;;;;;;;19.07;17.10;;;1.80;1.00;;;;;;6208008;28;20668;-53
2022/11/20 11:30:50;;;;;;;22.23;17.77;;;1.90;1.00;;;;;;6216865;28;20239;-54
2022/11/20 11:33:53;;;;;;;18.27;16.37;;;1.90;1.00;;;;;;6224325;28;20223;-53
2022/11/20 11:36:59;;;;;;;18.67;16.77;;;2.00;1.00;;;;;;6233607;28;20341;-53
2022/11/20 11:40:05;;;;;;;19.27;16.90;;;2.00;1.00;;;;;;6236018;28;20235;-55
2022/11/20 11:46:55;;;;;;;17.53;15.43;;;1.90;1.00;;;;;;6234457;28;20246;-54
2022/11/20 11:50:03;;;;;;;17.67;15.77;;;1.90;1.00;;;;;;6236899;28;20254;-53
2022/11/20 11:53:12;;;;;;;18.37;16.50;;;1.80;1.00;;;;;;6231486;28;20296;-55
2022/11/20 11:56:17;;;;;;;18.03;15.27;;;1.80;1.00;;;;;;6229151;28;20739;-55
2022/11/20 11:59:28;;;;;;;18.47;16.53;;;1.80;1.00;;;;;;6229650;28;20239;-54
2022/11/20 12:02:37;;;;;;;19.23;16.40;;;1.70;1.00;;;;;;6236193;28;20237;-54
2022/11/20 12:05:45;;;;;;;18.53;16.13;;;1.60;1.00;;;;;;6229552;28;20246;-55
2022/11/20 12:08:54;;;;;;;19.83;16.80;;;1.60;1.00;;;;;;6236626;28;20226;-54
2022/11/20 12:12:06;;;;;;;21.80;15.20;;;1.70;1.00;;;;;;6236693;28;20641;-54
2022/11/20 12:15:12;;;;;;;18.23;15.97;;;1.70;1.00;;;;;;6240779;28;20797;-54
2022/11/20 12:18:18;;;;;;;16.83;15.10;;;1.60;1.00;;;;;;6244146;28;20254;-54
2022/11/20 12:21:32;;;;;;;19.87;16.40;;;1.60;1.00;;;;;;6249808;28;20242;-54
2022/11/20 12:24:53;;;;;;;16.30;14.70;;;1.60;1.00;;;;;;6244297;28;20708;-55
2022/11/20 12:28:16;;;;;;;15.93;13.87;;;1.80;1.00;;;;;;6224655;28;20705;-54
2022/11/20 12:31:44;;;;;;;19.10;16.57;;;1.80;1.00;;;;;;6222480;28;20239;-54
2022/11/20 12:34:57;;;;;;;19.03;16.57;;;1.90;1.00;;;;;;6208365;28;20390;-54
2022/11/20 12:38:15;;;;;;;18.10;16.20;;;2.00;1.00;;;;;;6223336;28;20704;-55
2022/11/20 12:45:10;;;;;;;18.07;16.00;;;2.10;1.00;;;;;;6235249;28;20243;-55
2022/11/20 12:48:40;;;;;;;17.30;15.50;;;2.20;1.00;;;;;;6248826;28;20238;-54
2022/11/20 12:52:08;;;;;;;15.97;14.27;;;2.00;1.00;;;;;;6229385;28;20232;-54
2022/11/20 12:55:31;;;;;;;14.77;13.10;;;1.90;1.00;;;;;;6238384;28;20404;-55
2022/11/20 12:58:44;;;;;;;14.63;12.67;;;1.90;1.00;;;;;;6226378;28;20234;-54
2022/11/20 13:01:53;;;;;;;16.00;11.67;;;1.80;1.00;;;;;;6231440;28;20506;-54
2022/11/20 13:05:19;;;;;;;13.53;11.90;;;1.80;1.00;;;;;;6228799;28;20235;-54
2022/11/20 13:08:25;;;;;;;12.30;11.27;;;1.80;1.00;;;;;;6231050;28;20789;-54
2022/11/20 13:11:38;;;;;;;12.47;11.17;;;1.80;1.00;;;;;;6236494;28;20463;-55
2022/11/20 13:14:47;;;;;;;11.40;10.40;;;1.70;1.00;;;;;;6227056;28;20592;-55
2022/11/20 13:17:55;;;;;;;12.27;11.07;;;1.70;1.00;;;;;;6242526;28;20246;-55
2022/11/20 13:20:58;;;;;;;12.33;11.13;;;1.80;1.00;;;;;;6242105;28;20231;-55
2022/11/20 13:24:05;;;;;;;13.47;12.33;;;1.90;1.00;;;;;;6245233;28;20247;-54
2022/11/20 13:27:23;;;;;;;12.03;10.57;;;2.00;1.00;;;;;;6240744;28;20243;-54
2022/11/20 13:30:28;;;;;;;12.50;11.17;;;2.00;1.00;;;;;;6218735;28;20690;-54
2022/11/20 13:33:34;;;;;;;12.07;11.03;;;1.90;1.00;;;;;;6238560;28;20253;-55
2022/11/20 13:36:37;;;;;;;12.30;11.13;;;1.90;1.00;;;;;;6233625;28;20461;-57
2022/11/20 13:39:40;;;;;;;12.53;11.37;;;1.80;1.00;;;;;;6236133;28;20234;-54
2022/11/20 13:42:46;;;;;;;12.17;11.13;;;1.80;1.00;;;;;;6240203;28;20229;-54
2022/11/20 13:45:57;;;;;;;12.50;11.30;;;1.90;1.00;;;;;;6231512;28;20708;-54
2022/11/20 13:49:09;;;;;;;12.10;11.00;;;1.90;1.00;;;;;;6237432;28;20293;-54
2022/11/20 13:52:39;;;;;;;13.10;11.27;;;1.90;1.00;;;;;;6234728;28;20227;-55
2022/11/20 13:55:46;;;;;;;12.43;11.33;;;1.90;1.00;;;;;;6237008;28;20230;-54
2022/11/20 13:59:00;;;;;;;11.47;10.43;;;1.90;1.00;;;;;;6238419;28;20238;-55
2022/11/20 14:02:13;;;;;;;11.00;10.10;;;1.90;1.00;;;;;;6231344;28;20242;-54
2022/11/20 14:05:21;;;;;;;12.63;11.53;;;1.90;1.00;;;;;;6234875;28;20649;-54
2022/11/20 14:08:29;;;;;;;11.50;10.40;;;1.80;1.00;;;;;;6231700;28;20255;-54
2022/11/20 14:11:33;;;;;;;11.67;10.47;;;1.70;1.00;;;;;;6234288;28;20241;-54
2022/11/20 14:14:36;;;;;;;11.73;10.03;;;1.70;1.00;;;;;;6233140;28;20233;-54
2022/11/20 14:17:39;;;;;;;12.10;10.87;;;1.80;1.00;;;;;;6225238;28;20234;-55
2022/11/20 14:20:44;;;;;;;12.83;10.80;;;1.70;1.00;;;;;;6229650;28;20776;-55
2022/11/20 14:23:47;;;;;;;11.93;10.77;;;2.00;1.00;;;;;;6228546;28;20230;-57
2022/11/20 14:26:51;;;;;;;10.67;9.67;;;1.70;1.00;;;;;;6228277;28;20401;-53
2022/11/20 14:29:54;;;;;;;11.97;10.90;;;1.70;1.00;;;;;;6231809;28;20234;-54
2022/11/20 14:33:02;;;;;;;12.33;11.33;;;1.60;1.00;;;;;;6229495;28;20826;-54
2022/11/20 14:36:17;;;;;;;12.00;10.80;;;1.80;1.00;;;;;;6223150;28;20502;-60
2022/11/20 14:39:22;;;;;;;11.60;10.47;;;1.70;1.00;;;;;;6232362;28;20241;-54
2022/11/20 14:42:27;;;;;;;11.60;10.53;;;1.80;1.00;;;;;;6236333;28;20234;-53
2022/11/20 14:45:30;;;;;;;15.00;12.87;;;1.80;1.00;;;;;;6229910;28;20230;-55
2022/11/20 14:48:36;;;;;;;12.60;11.30;;;1.70;1.00;;;;;;6232107;28;20242;-55
2022/11/20 14:51:42;;;;;;;12.90;11.80;;;1.70;1.00;;;;;;6234879;28;20239;-54
2022/11/20 14:54:46;;;;;;;13.97;12.47;;;1.60;1.00;;;;;;6232308;28;20227;-54
2022/11/20 14:57:56;;;;;;;13.40;12.03;;;1.50;1.00;;;;;;6229814;28;20612;-54
2022/11/20 15:01:01;;;;;;;13.70;12.50;;;1.50;1.00;;;;;;6229522;28;20764;-55
2022/11/20 15:04:09;;;;;;;14.10;12.77;;;1.40;1.00;;;;;;6232675;28;20235;-54
2022/11/20 15:07:24;;;;;;;12.80;11.60;;;1.60;1.00;;;;;;6231528;28;20296;-55
2022/11/20 15:10:29;;;;;;;13.67;12.40;;;1.40;1.00;;;;;;6236042;28;20466;-53
2022/11/20 15:13:34;;;;;;;13.27;12.07;;;1.30;1.00;;;;;;6228424;28;20246;-55
2022/11/20 15:16:37;;;;;;;13.00;11.70;;;1.30;1.00;;;;;;6234640;28;20239;-57
2022/11/20 15:19:40;;;;;;;13.27;12.00;;;1.30;1.00;;;;;;6230688;28;20242;-54
2022/11/20 15:22:44;;;;;;;12.73;11.63;;;1.30;1.00;;;;;;6246103;28;20660;-55
2022/11/20 15:25:48;;;;;;;13.03;11.73;;;1.30;1.00;;;;;;6225328;28;20238;-54
2022/11/20 15:28:51;;;;;;;14.30;11.77;;;1.30;1.00;;;;;;6238683;28;20234;-54
2022/11/20 15:31:55;;;;;;;12.97;11.63;;;1.30;1.00;;;;;;6238377;28;20237;-55
2022/11/20 15:34:58;;;;;;;13.60;12.10;;;1.40;1.00;;;;;;6231521;28;20232;-54
2022/11/20 15:38:03;;;;;;;12.83;11.80;;;1.40;1.00;;;;;;6236834;28;20241;-54
2022/11/20 15:41:06;;;;;;;13.23;11.97;;;1.30;1.00;;;;;;6234093;28;20235;-54
2022/11/20 15:44:09;;;;;;;13.60;12.30;;;1.30;1.00;;;;;;6235755;28;20245;-53
2022/11/20 15:47:12;;;;;;;13.37;12.00;;;1.30;1.00;;;;;;6242219;28;20245;-55
2022/11/20 15:50:18;;;;;;;14.07;12.10;;;1.40;1.00;;;;;;6233822;28;20235;-54
2022/11/20 15:53:22;;;;;;;13.97;12.60;;;1.40;1.00;;;;;;6249325;28;20231;-54
2022/11/20 15:56:26;;;;;;;14.40;13.03;;;1.40;1.00;;;;;;6217379;28;20243;-54
2022/11/20 15:59:29;;;;;;;14.10;12.70;;;1.40;1.00;;;;;;6209984;28;20445;-55
2022/11/20 16:02:31;;;;;;;14.93;13.40;;;1.40;1.00;;;;;;6218431;28;20242;-54
2022/11/20 16:05:35;;;;;;;15.17;13.60;;;1.40;1.00;;;;;;6213569;28;20232;-55
2022/11/20 16:08:39;;;;;;;15.20;12.90;;;1.30;1.00;;;;;;6215129;28;20251;-54
2022/11/20 16:11:42;;;;;;;15.07;12.93;;;1.30;1.00;;;;;;6214981;28;20235;-53
2022/11/20 16:18:05;;;;;;;14.17;12.67;;;1.10;1.00;;;;;;6232607;28;20335;-57
2022/11/20 16:21:13;;;;;;;15.50;12.43;;;1.00;1.00;;;;;;6231952;28;20709;-53
2022/11/20 16:24:17;;;;;;;14.43;12.80;;;1.10;1.00;;;;;;6231240;28;20868;-55
2022/11/20 16:27:20;;;;;;;15.03;13.37;;;0.90;1.00;;;;;;6233557;28;20241;-53
2022/11/20 16:30:23;;;;;;;14.07;12.23;;;1.10;1.00;;;;;;6225288;28;20759;-55
2022/11/20 16:33:26;;;;;;;14.20;12.90;;;0.90;1.00;;;;;;6236519;28;20767;-53
2022/11/20 16:36:29;;;;;;;14.83;13.00;;;1.00;1.00;;;;;;6228196;28;20737;-53
2022/11/20 16:39:34;;;;;;;14.07;12.53;;;0.80;1.00;;;;;;6232589;28;20725;-55
2022/11/20 16:42:37;;;;;;;14.43;13.13;;;0.80;1.00;;;;;;6235791;28;20759;-57
2022/11/20 16:45:45;;;;;;;14.43;13.07;;;0.80;1.00;;;;;;6228690;28;20245;-53
2022/11/20 16:48:53;;;;;;;17.73;12.80;;;0.80;1.00;;;;;;6231779;28;20227;-58
2022/11/20 16:51:56;;;;;;;15.90;13.67;;;1.00;1.00;;;;;;6235069;28;20246;-54
2022/11/20 16:55:01;;;;;;;14.63;13.13;;;0.60;1.00;;;;;;6237208;28;20242;-55
2022/11/20 16:58:03;;;;;;;14.20;12.80;;;0.70;1.00;;;;;;6235830;28;20243;-53
2022/11/20 17:01:09;;;;;;;16.20;14.30;;;1.00;1.00;;;;;;6239525;28;20521;-55
2022/11/20 17:04:12;;;;;;;15.37;13.50;;;0.70;1.00;;;;;;6235877;28;20254;-55
2022/11/20 17:07:15;;;;;;;14.83;12.77;;;0.80;1.00;;;;;;6229400;28;20243;-55
2022/11/20 17:10:20;;;;;;;14.87;12.50;;;0.80;1.00;;;;;;6230940;28;20317;-54
2022/11/20 17:13:23;;;;;;;18.23;13.80;;;0.80;1.00;;;;;;6234727;28;20242;-53
2022/11/20 17:16:26;;;;;;;15.33;13.73;;;0.80;1.00;;;;;;6235575;28;20249;-54
2022/11/20 17:19:29;;;;;;;15.43;13.93;;;0.70;1.00;;;;;;6234501;28;20397;-53
2022/11/20 17:22:32;;;;;;;15.07;13.57;;;0.60;1.00;;;;;;6244376;28;20683;-54
2022/11/20 17:25:36;;;;;;;14.90;13.50;;;0.90;1.00;;;;;;6240539;28;20230;-55
2022/11/20 17:28:40;;;;;;;15.83;14.33;;;0.80;1.00;;;;;;6235491;28;20235;-54
2022/11/20 17:31:44;;;;;;;14.77;13.27;;;1.00;1.00;;;;;;6234317;28;20481;-55
2022/11/20 17:34:47;;;;;;;15.63;13.97;;;0.80;1.00;;;;;;6228615;28;20718;-54
2022/11/20 17:37:50;;;;;;;15.17;13.57;;;0.80;1.00;;;;;;6226137;28;20231;-52
2022/11/20 17:41:01;;;;;;;18.00;13.57;;;0.90;1.00;;;;;;6223285;28;20249;-53
2022/11/20 17:44:04;;;;;;;16.63;14.97;;;1.00;1.00;;;;;;6239698;28;20614;-54
2022/11/20 17:47:07;;;;;;;14.90;13.47;;;0.90;1.00;;;;;;6232788;28;20246;-54
2022/11/20 17:50:10;;;;;;;17.60;13.87;;;0.90;1.00;;;;;;6233522;28;20235;-55
2022/11/20 17:53:13;;;;;;;17.30;14.23;;;1.00;1.00;;;;;;6234983;28;20234;-54
2022/11/20 17:59:38;;;;;;;16.67;13.90;;;0.90;1.00;;;;;;6209556;28;20231;-55
2022/11/20 18:02:41;;;;;;;17.73;15.57;;;1.10;1.00;;;;;;6230982;28;20223;-53
2022/11/20 18:05:44;;;;;;;19.40;16.70;;;1.20;1.00;;;;;;6234429;28;20231;-54
2022/11/20 18:08:48;;;;;;;17.50;15.33;;;1.00;1.00;;;;;;6230563;28;20747;-53
2022/11/20 18:11:53;;;;;;;16.93;14.67;;;1.00;1.00;;;;;;6234443;28;20235;-53
2022/11/20 18:14:56;;;;;;;15.93;14.10;;;0.90;1.00;;;;;;6235283;28;20234;-56
2022/11/20 18:17:59;;;;;;;18.53;14.70;;;0.90;1.00;;;;;;6224509;28;20239;-56
2022/11/20 18:21:02;;;;;;;16.57;14.87;;;0.90;1.00;;;;;;6231213;28;20736;-53
2022/11/20 18:24:05;;;;;;;16.30;14.60;;;1.00;1.00;;;;;;6234818;28;20238;-54
2022/11/20 18:27:16;;;;;;;14.90;13.40;;;1.00;1.00;;;;;;6229288;28;20243;-53
2022/11/20 18:30:19;;;;;;;15.20;13.70;;;0.80;1.00;;;;;;6227140;28;20250;-54
2022/11/20 18:33:22;;;;;;;16.10;14.47;;;1.10;1.00;;;;;;6241966;28;20238;-54
2022/11/20 18:36:31;;;;;;;16.07;14.23;;;0.80;1.00;;;;;;6234533;28;20340;-54
2022/11/20 18:39:34;;;;;;;18.23;16.27;;;0.80;1.00;;;;;;6232482;28;20226;-56
2022/11/20 18:46:02;;;;;;;16.67;14.97;;;0.70;1.00;;;;;;6225691;28;20625;-54
2022/11/20 18:49:05;;;;;;;16.63;14.70;;;0.90;1.00;;;;;;6222285;28;20231;-54
2022/11/20 18:52:08;;;;;;;16.80;15.07;;;0.70;1.00;;;;;;6232712;28;20245;-55
2022/11/20 18:55:11;;;;;;;21.10;15.57;;;0.60;1.00;;;;;;6226598;28;20241;-53
2022/11/20 18:58:16;;;;;;;16.90;15.17;;;0.70;1.00;;;;;;6238029;28;20230;-53
2022/11/20 19:01:19;;;;;;;16.87;14.93;;;0.50;1.00;;;;;;6222554;28;20242;-53
2022/11/20 19:04:22;;;;;;;16.37;14.67;;;0.40;1.00;;;;;;6225114;28;20238;-54
2022/11/20 19:07:26;;;;;;;16.07;14.37;;;0.30;1.00;;;;;;6234060;28;20235;-55
2022/11/20 19:10:29;;;;;;;16.33;14.67;;;0.60;1.00;;;;;;6237842;28;20308;-59
2022/11/20 19:13:34;;;;;;;17.43;15.23;;;0.30;1.00;;;;;;6232800;28;20242;-54
2022/11/20 19:16:37;;;;;;;17.53;14.67;;;0.60;1.00;;;;;;6235105;28;20736;-54
2022/11/20 19:19:40;;;;;;;18.63;13.83;;;0.30;1.00;;;;;;6222591;28;20766;-55
2022/11/20 19:22:43;;;;;;;18.00;15.43;;;0.30;1.00;;;;;;6240010;28;20516;-54
2022/11/20 19:25:46;;;;;;;15.97;14.27;;;0.30;1.00;;;;;;6235361;28;20234;-54
2022/11/20 19:28:51;;;;;;;16.10;14.50;;;0.30;1.00;;;;;;6241853;28;20238;-54
2022/11/20 19:31:54;;;;;;;16.03;14.13;;;0.20;1.00;;;;;;6242573;28;20230;-55
2022/11/20 19:34:57;;;;;;;17.40;15.10;;;0.30;1.00;;;;;;6237771;28;20234;-57
2022/11/20 19:38:00;;;;;;;16.97;14.50;;;0.30;1.00;;;;;;6234134;28;20247;-54
2022/11/20 19:41:08;;;;;;;15.73;14.10;;;0.20;1.00;;;;;;6236143;28;20628;-53
2022/11/20 19:44:14;;;;;;;17.13;15.43;;;0.40;1.00;;;;;;6226944;28;20372;-53
2022/11/20 19:47:17;;;;;;;16.03;14.40;;;0.30;1.00;;;;;;6242500;28;20234;-55
2022/11/20 19:50:20;;;;;;;19.67;16.43;;;0.40;1.00;;;;;;6231520;28;20246;-53
2022/11/20 19:53:23;;;;;;;18.13;15.83;;;0.10;1.00;;;;;;6233354;28;20325;-54
2022/11/20 19:56:27;;;;;;;17.97;15.40;;;0.30;1.00;;;;;;6236208;28;20231;-53
2022/11/20 19:59:31;;;;;;;17.77;15.93;;;0.30;1.00;;;;;;6231948;28;20231;-53
2022/11/20 20:02:34;;;;;;;18.90;16.03;;;0.30;1.00;;;;;;6241702;28;20249;-53
2022/11/20 20:05:37;;;;;;;17.67;15.70;;;0.40;1.00;;;;;;6239172;28;20227;-54
2022/11/20 20:08:40;;;;;;;20.37;14.90;;;0.30;1.00;;;;;;6231051;28;20230;-55
2022/11/20 20:11:46;;;;;;;18.77;14.83;;;0.30;1.00;;;;;;6237787;28;20253;-54
2022/11/20 20:14:50;;;;;;;18.10;15.17;;;0.30;1.00;;;;;;6239545;28;20231;-54
2022/11/20 20:17:55;;;;;;;19.43;15.77;;;0.30;1.00;;;;;;6228895;28;20280;-54
2022/11/20 20:21:03;;;;;;;15.93;14.33;;;0.40;1.00;;;;;;6235736;28;20235;-54
2022/11/20 20:24:06;;;;;;;17.93;15.63;;;0.30;1.00;;;;;;6236824;28;20247;-54
2022/11/20 20:27:09;;;;;;;17.93;15.83;;;0.30;1.00;;;;;;6233097;28;20492;-54
2022/11/20 20:30:14;;;;;;;17.33;15.47;;;0.30;1.00;;;;;;6230046;28;20597;-54
2022/11/20 20:33:17;;;;;;;19.43;15.60;;;0.30;1.00;;;;;;6243512;28;20246;-54
2022/11/20 20:36:21;;;;;;;17.23;15.47;;;0.50;1.00;;;;;;6236993;28;20242;-55
2022/11/20 20:39:24;;;;;;;17.30;15.47;;;0.40;1.00;;;;;;6242689;28;20230;-58
2022/11/20 20:42:29;;;;;;;18.37;15.77;;;0.50;1.00;;;;;;6235313;28;20235;-55
2022/11/20 20:45:34;;;;;;;17.00;15.20;;;0.50;1.00;;;;;;6234094;28;20242;-54
2022/11/20 20:48:37;;;;;;;17.07;15.30;;;0.40;1.00;;;;;;6231985;28;20237;-58
2022/11/20 20:51:40;;;;;;;17.50;15.50;;;0.60;1.00;;;;;;6238241;28;20283;-54
2022/11/20 20:54:43;;;;;;;16.40;14.67;;;0.30;1.00;;;;;;6235562;28;20241;-53
2022/11/20 20:57:46;;;;;;;18.67;16.50;;;0.40;1.00;;;;;;6236113;28;20791;-54
2022/11/20 21:00:51;;;;;;;18.03;15.53;;;0.30;1.00;;;;;;6232156;28;20231;-60
2022/11/20 21:03:54;;;;;;;17.00;14.67;;;0.20;1.00;;;;;;6228802;28;20747;-53
2022/11/20 21:06:56;;;;;;;17.57;15.80;;;0.20;1.00;;;;;;6235608;28;20239;-55
2022/11/20 21:09:59;;;;;;;16.70;15.00;;;0.10;1.00;;;;;;6235959;28;20265;-54
2022/11/20 21:13:02;;;;;;;18.67;15.40;;;0.00;1.00;;;;;;6233866;28;20238;-56
2022/11/20 21:16:07;;;;;;;18.40;16.43;;;0.00;1.00;;;;;;6235633;28;20302;-54
2022/11/20 21:19:10;;;;;;;17.47;15.77;;;-0.30;1.00;;;;;;6236656;28;20643;-54
2022/11/20 21:22:12;;;;;;;17.30;14.83;;;0.00;1.00;;;;;;6228113;28;20243;-54
2022/11/20 21:25:15;;;;;;;18.63;15.70;;;-0.20;1.00;;;;;;6233976;28;20421;-53
2022/11/20 21:28:18;;;;;;;16.67;14.90;;;-0.10;1.00;;;;;;6228519;28;20245;-54
2022/11/20 21:31:25;;;;;;;21.93;16.30;;;-0.10;1.00;;;;;;6235424;28;20291;-56
2022/11/20 21:34:28;;;;;;;19.40;16.23;;;-0.10;1.00;;;;;;6228033;28;20366;-54
2022/11/20 21:37:31;;;;;;;19.17;15.77;;;-0.40;1.00;;;;;;6228602;28;20247;-54
2022/11/20 21:40:38;;;;;;;19.03;17.03;;;-0.20;1.00;;;;;;6224048;28;20776;-52
2022/11/20 21:43:43;;;;;;;19.63;15.83;;;-0.10;1.00;;;;;;6226211;28;20616;-53
2022/11/20 21:46:47;;;;;;;18.00;14.93;;;-0.10;1.00;;;;;;6230215;28;20241;-53
2022/11/20 21:49:50;;;;;;;16.73;14.97;;;-0.10;1.00;;;;;;6229577;28;20234;-53
2022/11/20 21:52:53;;;;;;;17.77;14.87;;;-0.10;1.00;;;;;;6235129;28;20234;-57
2022/11/20 21:55:56;;;;;;;16.77;15.00;;;-0.20;1.00;;;;;;6234619;28;20601;-54
2022/11/20 21:58:59;;;;;;;17.10;14.37;;;-0.30;1.00;;;;;;6226476;28;20242;-54
2022/11/20 22:02:04;;;;;;;16.40;14.70;;;-0.30;1.00;;;;;;6234707;28;20766;-54
2022/11/20 22:05:08;;;;;;;16.33;13.50;;;-0.30;1.00;;;;;;6234978;28;20310;-54
2022/11/20 22:08:11;;;;;;;18.47;15.03;;;-0.60;1.00;;;;;;6232946;28;20246;-53
2022/11/20 22:11:15;;;;;;;21.00;16.97;;;-0.40;1.00;;;;;;6226747;28;20239;-55
2022/11/20 22:14:21;;;;;;;23.10;18.70;;;-0.60;1.00;;;;;;6235289;28;20804;-54
2022/11/20 22:20:43;;;;;;;21.63;17.43;;;-0.70;1.00;;;;;;6213147;28;20470;-53
2022/11/20 22:23:47;;;;;;;23.20;17.23;;;-0.70;1.00;;;;;;6209984;28;20242;-54
2022/11/20 22:26:50;;;;;;;22.43;16.93;;;-0.90;1.00;;;;;;6209623;28;20227;-54
2022/11/20 22:29:53;;;;;;;21.00;16.77;;;-0.80;1.00;;;;;;6202153;28;20283;-55
2022/11/20 22:32:57;;;;;;;24.13;17.50;;;-0.60;1.00;;;;;;6206381;28;20351;-54
2022/11/20 22:36:01;;;;;;;22.17;16.97;;;-0.80;1.00;;;;;;6205784;28;20266;-54
2022/11/20 22:39:05;;;;;;;21.13;17.20;;;-1.00;1.00;;;;;;6215353;28;20321;-54
2022/11/20 22:42:08;;;;;;;22.97;17.93;;;-0.80;1.00;;;;;;6208834;28;20239;-54
2022/11/20 22:45:12;;;;;;;22.57;18.27;;;-1.00;1.00;;;;;;6209559;28;20231;-53
2022/11/20 22:48:16;;;;;;;20.73;17.13;;;-0.90;1.00;;;;;;6201327;28;20285;-53
2022/11/20 22:51:21;;;;;;;21.60;16.80;;;-1.10;1.00;;;;;;6209532;28;20243;-54
2022/11/20 22:54:24;;;;;;;22.67;18.23;;;-0.90;1.00;;;;;;6209261;28;20270;-54
2022/11/20 22:57:27;;;;;;;26.80;20.07;;;-1.10;1.00;;;;;;6203634;28;20278;-54